Port Hope, MI

1:41 AM EDT on September 02, 2015 (GMT -0400)
Eastwatch-by-the-Sea | | Change Station
CLOSE
Current Station
Personal Weather Station
Location: Port Hope, MI
Elevation: 565 ft
Nearby Weather Stations

Elev 565 ft 43.95 °N, 82.72 °W | Updated 2 seconds ago

Clear
Clear
68.2 °F
Feels Like 68.2 °F
N
0.0
Wind Variable Wind from SW
Gusts 0.0 mph

Today
High -- | Low -- °F
--% Chance of Precip.
Yesterday
High -- | Low -- °F
Precip. -- in
6:55 AM 8:05 PM
Waning Gibbous, 83% visible
Pressure 30.04 in
Visibility 2.5 miles
Clouds Clear
Dew Point 68 °F
Humidity 98%
Rainfall 0.00 in
Snow Depth Not available.
UV 0.0 out of 12
Pollen 10.60 out of 12
Air Quality Not available.
Flu Activity Not available.
METAR KBAX 020533Z AUTO 00000KT 2 1/2SM BR CLR 19/19 A3004 RMK AO2 T01890186
Pressure 30.04 in
Visibility 2.5 miles
Clouds Clear
Dew Point 68 °F
Humidity 98%
Rainfall 0.00 in
Snow Depth Not available.
UV 0.0 out of 12
Pollen 10.60 out of 12
Air Quality Not available.
Flu Activity Not available.
METAR KBAX 020533Z AUTO 00000KT 2 1/2SM BR CLR 19/19 A3004 RMK AO2 T01890186

10-Day Weather Forecast

×

Almanac

Astronomy

Sep. 02, 2015 Rise Set
Actual Time
Civil Twilight
Nautical Twilight
Astronomical Twilight
Moon
Length of Visible Light
Length of Day
Tomorrow will be .
, % of the Moon is Illuminated

Today's Extremes

State Highs State Lows

Community

WunderPhotos

Upload Photos

1,851,709 photos uploaded!

WunderBlogs® & News

Nearby

Air Quality

  Air Quality AQ Index Pollutant
Not available.

Snow Depth

Station Depth Elevation

Earthquake Activity

City Distance Mag. Time & Date
Minimum magnitude displayed is 2.5.

Coastal Water Temperatures

Place Temperature

Stations

Nearby Weather Stations

Station Location Temp. Windchill Dew Point Humidity Wind Precip. Elev Updated Type